createdAt,value
2022-08-26T00:01:55.909Z,97915.41
2022-08-26T00:04:25.454Z,97904.56
2022-08-26T00:06:56.501Z,97911.50
2022-08-26T00:09:24.680Z,97918.69
2022-08-26T00:11:53.854Z,97916.53
2022-08-26T00:14:21.480Z,97912.28
2022-08-26T00:16:49.005Z,97922.66
2022-08-26T00:19:21.451Z,97911.25
2022-08-26T00:21:49.615Z,97908.84
2022-08-26T00:24:19.530Z,97905.94
2022-08-26T00:26:47.232Z,97903.81
2022-08-26T00:29:14.842Z,97908.63
2022-08-26T00:31:42.283Z,97904.13
2022-08-26T00:34:11.124Z,97907.59
2022-08-26T00:36:39.590Z,97899.88
2022-08-26T00:39:08.431Z,97899.63
2022-08-26T00:41:39.873Z,97908.16
2022-08-26T00:44:09.119Z,97909.22
2022-08-26T00:47:00.934Z,97911.88
2022-08-26T00:49:42.200Z,97907.34
2022-08-26T00:52:16.515Z,97906.53
2022-08-26T00:54:56.502Z,97903.31
2022-08-26T00:57:23.809Z,97905.47
2022-08-26T00:59:58.557Z,97911.09
2022-08-26T01:02:25.419Z,97914.84
2022-08-26T01:04:57.906Z,97907.13
2022-08-26T01:07:31.351Z,97914.56
2022-08-26T01:10:02.833Z,97907.13
2022-08-26T01:12:40.168Z,97916.16
2022-08-26T01:15:10.116Z,97916.19
2022-08-26T01:17:39.675Z,97909.78
2022-08-26T01:20:59.732Z,97920.44
2022-08-26T01:23:39.315Z,97917.22
2022-08-26T01:26:21.894Z,97916.19
2022-08-26T01:28:53.853Z,97918.84
2022-08-26T01:31:27.037Z,97915.13
2022-08-26T01:34:10.907Z,97912.19
2022-08-26T01:36:40.035Z,97915.66
2022-08-26T01:39:07.807Z,97916.19
2022-08-26T01:41:36.479Z,97908.72
2022-08-26T01:44:09.700Z,97908.19
2022-08-26T01:46:37.181Z,97901.28
2022-08-26T01:49:08.182Z,97909.00
2022-08-26T01:51:38.541Z,97901.53
2022-08-26T01:54:12.094Z,97899.38
2022-08-26T01:56:41.061Z,97896.72
2022-08-26T01:59:14.414Z,97898.59
2022-08-26T02:01:41.750Z,97899.16
2022-08-26T02:04:45.403Z,97904.47
2022-08-26T02:07:12.544Z,97901.50
2022-08-26T02:09:42.206Z,97903.13
2022-08-26T02:12:12.798Z,97907.13
2022-08-26T02:14:50.238Z,97896.47
2022-08-26T02:17:26.004Z,97902.59
2022-08-26T02:20:17.672Z,97898.06
2022-08-26T02:22:59.972Z,97892.44
2022-08-26T02:25:43.043Z,97884.22
2022-08-26T02:28:12.411Z,97891.38
2022-08-26T02:30:41.102Z,97894.34
2022-08-26T02:33:07.900Z,97891.91
2022-08-26T02:35:36.535Z,97896.44
2022-08-26T02:38:09.874Z,97904.97
2022-08-26T02:40:42.089Z,97893.28
2022-08-26T02:43:09.754Z,97891.38
2022-08-26T02:45:36.681Z,97894.81
2022-08-26T02:48:12.979Z,97894.31
2022-08-26T02:50:41.030Z,97890.03
2022-08-26T02:53:10.522Z,97898.53
2022-08-26T02:55:37.128Z,97894.28
2022-08-26T02:58:04.559Z,97888.97
2022-08-26T03:00:31.855Z,97884.72
2022-08-26T03:02:59.314Z,97890.06
2022-08-26T03:05:26.334Z,97885.22
2022-08-26T03:07:53.282Z,97892.69
2022-08-26T03:10:21.756Z,97893.22
2022-08-26T03:12:48.479Z,97889.50
2022-08-26T03:15:18.592Z,97889.25
2022-08-26T03:17:48.336Z,97892.72
2022-08-26T03:20:17.532Z,97894.81
2022-08-26T03:22:45.249Z,97880.44
2022-08-26T03:25:16.616Z,97879.69
2022-08-26T03:27:43.590Z,97887.38
2022-08-26T03:30:31.570Z,97878.56
2022-08-26T03:32:58.703Z,97879.91
2022-08-26T03:35:26.446Z,97872.97
2022-08-26T03:37:54.279Z,97882.03
2022-08-26T03:40:22.369Z,97871.09
2022-08-26T03:42:50.519Z,97884.91
2022-08-26T03:45:19.785Z,97884.09
2022-08-26T03:47:48.017Z,97881.97
2022-08-26T03:50:22.899Z,97865.22
2022-08-26T03:52:54.565Z,97877.44
2022-08-26T03:55:27.291Z,97871.56
2022-08-26T03:57:54.893Z,97874.22
2022-08-26T04:00:22.463Z,97871.31
2022-08-26T04:02:51.143Z,97875.56
2022-08-26T04:05:22.061Z,97882.75
2022-08-26T04:07:50.598Z,97864.91
2022-08-26T04:10:29.163Z,97875.28
2022-08-26T04:12:58.724Z,97870.78
2022-08-26T04:15:26.965Z,97877.44
2022-08-26T04:17:53.910Z,97876.66
2022-08-26T04:20:22.541Z,97869.75
2022-08-26T04:22:49.152Z,97877.13
2022-08-26T04:25:16.345Z,97872.88
2022-08-26T04:27:43.202Z,97880.84
2022-08-26T04:30:11.493Z,97867.28
2022-08-26T04:32:38.612Z,97870.75
2022-08-26T04:35:06.421Z,97864.88
2022-08-26T04:37:33.563Z,97873.94
2022-08-26T04:40:00.611Z,97876.59
2022-08-26T04:42:29.283Z,97870.72
2022-08-26T04:44:56.041Z,97868.63
2022-08-26T04:47:22.674Z,97867.03
2022-08-26T04:49:49.379Z,97875.03
2022-08-26T04:52:17.067Z,97884.06
2022-08-26T04:54:43.683Z,97884.66
2022-08-26T04:57:10.465Z,97881.97
2022-08-26T04:59:39.274Z,97880.66
2022-08-26T05:02:07.249Z,97892.38
2022-08-26T05:04:34.592Z,97887.25
2022-08-26T05:07:02.985Z,97889.63
2022-08-26T05:09:30.475Z,97887.50
2022-08-26T05:11:57.325Z,97886.91
2022-08-26T05:14:24.283Z,97887.91
2022-08-26T05:16:51.704Z,97892.13
2022-08-26T05:19:27.977Z,97892.09
2022-08-26T05:21:54.662Z,97900.56
2022-08-26T05:24:21.743Z,97897.63
2022-08-26T05:26:48.417Z,97902.13
2022-08-26T05:29:16.810Z,97902.91
2022-08-26T05:31:43.722Z,97897.66
2022-08-26T05:34:10.458Z,97908.81
2022-08-26T05:36:37.215Z,97907.78
2022-08-26T05:39:07.798Z,97906.22
2022-08-26T05:41:40.981Z,97910.56
2022-08-26T05:44:12.654Z,97899.97
2022-08-26T05:46:44.721Z,97907.72
2022-08-26T05:49:14.427Z,97914.94
2022-08-26T05:51:46.236Z,97911.84
2022-08-26T05:54:21.349Z,97911.03
2022-08-26T05:56:52.477Z,97911.34
2022-08-26T05:59:21.281Z,97905.53
2022-08-26T06:01:54.600Z,97898.06
2022-08-26T06:04:22.513Z,97910.84
2022-08-26T06:06:51.760Z,97904.72
2022-08-26T06:09:18.376Z,97900.75
2022-08-26T06:11:45.459Z,97906.59
2022-08-26T06:14:12.409Z,97908.97
2022-08-26T06:16:45.279Z,97906.56
2022-08-26T06:19:15.753Z,97915.03
2022-08-26T06:21:47.530Z,97917.16
2022-08-26T06:24:39.401Z,97911.28
2022-08-26T06:27:09.997Z,97930.44
2022-08-26T06:29:39.084Z,97920.56
2022-08-26T06:32:06.740Z,97926.69
2022-08-26T06:34:33.855Z,97930.16
2022-08-26T06:37:06.462Z,97932.50
2022-08-26T06:39:34.227Z,97924.69
2022-08-26T06:42:02.665Z,97923.84
2022-08-26T06:44:29.795Z,97926.13
2022-08-26T06:46:56.469Z,97920.00
2022-08-26T06:49:27.198Z,97921.81
2022-08-26T06:51:57.964Z,97923.81
2022-08-26T06:54:24.901Z,97913.88
2022-08-26T06:56:51.839Z,97918.47
2022-08-26T06:59:18.502Z,97914.50
2022-08-26T07:01:45.510Z,97917.31
2022-08-26T07:04:15.740Z,97911.88
2022-08-26T07:06:48.937Z,97915.22
2022-08-26T07:09:17.373Z,97918.84
2022-08-26T07:11:45.124Z,97923.66
2022-08-26T07:14:12.544Z,97918.25
2022-08-26T07:16:41.248Z,97913.47
2022-08-26T07:19:11.176Z,97918.75
2022-08-26T07:21:41.523Z,97910.31
2022-08-26T07:24:11.087Z,97913.41
2022-08-26T07:26:43.061Z,97902.25
2022-08-26T07:29:12.520Z,97910.22
2022-08-26T07:31:42.352Z,97914.25
2022-08-26T07:34:13.543Z,97910.63
2022-08-26T07:36:41.347Z,97907.91
2022-08-26T07:39:08.856Z,97905.94
2022-08-26T07:41:36.597Z,97910.06
2022-08-26T07:44:04.293Z,97912.88
2022-08-26T07:46:31.763Z,97913.91
2022-08-26T07:48:59.140Z,97915.63
2022-08-26T07:51:27.079Z,97913.66
2022-08-26T07:53:55.256Z,97909.00
2022-08-26T07:56:23.394Z,97916.50
2022-08-26T07:58:53.949Z,97913.72
2022-08-26T08:01:23.609Z,97908.94
2022-08-26T08:03:53.245Z,97910.53
2022-08-26T08:06:27.366Z,97901.84
2022-08-26T08:08:56.336Z,97909.09
2022-08-26T08:11:25.049Z,97901.78
2022-08-26T08:13:56.040Z,97893.31
2022-08-26T08:16:26.096Z,97902.59
2022-08-26T08:18:53.781Z,97898.63
2022-08-26T08:21:23.656Z,97907.97
2022-08-26T08:23:56.201Z,97907.19
2022-08-26T08:26:25.631Z,97905.38
2022-08-26T08:28:57.758Z,97900.41
2022-08-26T08:31:57.090Z,97897.59
2022-08-26T08:34:19.192Z,97901.19
2022-08-26T08:36:48.403Z,97904.56
2022-08-26T08:39:15.052Z,97902.97
2022-08-26T08:41:51.256Z,97906.56
2022-08-26T08:47:06.068Z,97896.72
2022-08-26T08:49:34.764Z,97902.19
2022-08-26T08:52:31.214Z,97893.81
2022-08-26T08:54:58.211Z,97884.41
2022-08-26T08:57:49.638Z,97882.94
2022-08-26T09:00:30.411Z,97886.59
2022-08-26T09:03:06.607Z,97884.47
2022-08-26T09:05:48.534Z,97880.47
2022-08-26T09:08:25.100Z,97880.66
2022-08-26T09:10:59.572Z,97875.19
2022-08-26T09:13:28.203Z,97876.03
2022-08-26T09:16:24.134Z,97875.72
2022-08-26T09:19:41.902Z,97872.69
2022-08-26T09:22:09.636Z,97871.88
2022-08-26T09:24:41.843Z,97869.34
2022-08-26T09:27:45.551Z,97867.28
2022-08-26T09:30:37.271Z,97863.63
2022-08-26T09:33:11.001Z,97861.94
2022-08-26T09:35:40.707Z,97860.03
2022-08-26T09:38:29.293Z,97859.72
2022-08-26T09:41:18.903Z,97849.28
2022-08-26T09:44:19.080Z,97849.13
2022-08-26T09:47:01.252Z,97842.97
2022-08-26T09:49:37.473Z,97829.00
2022-08-26T09:52:11.307Z,97830.22
2022-08-26T09:54:39.292Z,97821.81
2022-08-26T09:57:24.750Z,97815.88
2022-08-26T09:59:51.438Z,97811.88
2022-08-26T10:02:32.424Z,97807.34
2022-08-26T10:05:09.126Z,97804.47
2022-08-26T10:07:44.342Z,97801.28
2022-08-26T10:10:16.891Z,97787.34
2022-08-26T10:12:57.314Z,97782.78
2022-08-26T10:15:26.362Z,97781.88
2022-08-26T10:18:21.397Z,97767.97
2022-08-26T10:21:02.639Z,97761.06
2022-08-26T10:23:42.530Z,97754.09
2022-08-26T10:26:25.405Z,97764.09
2022-08-26T10:29:27.303Z,97751.16
2022-08-26T10:32:03.517Z,97751.19
2022-08-26T10:34:33.368Z,97745.81
2022-08-26T10:37:14.753Z,97743.81
2022-08-26T10:39:57.139Z,97752.34
2022-08-26T10:43:08.519Z,97740.56
2022-08-26T10:45:46.920Z,97738.03
2022-08-26T10:48:24.535Z,97747.91
2022-08-26T10:50:52.018Z,97743.81
2022-08-26T10:54:17.580Z,97742.59
2022-08-26T10:57:19.086Z,97734.09
2022-08-26T11:00:34.876Z,97730.47
2022-08-26T11:03:35.104Z,97724.97
2022-08-26T11:06:21.571Z,97730.59
2022-08-26T11:08:53.914Z,97729.59
2022-08-26T11:11:46.889Z,97727.56
2022-08-26T11:14:28.670Z,97731.19
2022-08-26T11:16:59.733Z,97735.00
2022-08-26T11:19:58.844Z,97722.94
2022-08-26T11:22:38.059Z,97722.84
2022-08-26T11:25:18.361Z,97726.56
2022-08-26T11:27:48.146Z,97719.44
2022-08-26T11:30:15.811Z,97714.34
2022-08-26T11:32:57.445Z,97711.19
2022-08-26T11:35:44.010Z,97701.91
2022-08-26T11:38:29.257Z,97699.13
2022-08-26T11:41:20.694Z,97684.03
2022-08-26T11:43:52.168Z,97679.38
2022-08-26T11:46:30.522Z,97677.13
2022-08-26T11:49:07.903Z,97667.03
2022-08-26T11:51:40.421Z,97668.16
2022-08-26T11:54:30.486Z,97670.41
2022-08-26T11:57:09.349Z,97672.44
2022-08-26T11:59:41.873Z,97666.13
2022-08-26T12:02:17.728Z,97665.22
2022-08-26T12:04:51.206Z,97661.31
2022-08-26T12:07:25.936Z,97656.22
2022-08-26T12:10:00.460Z,97653.25
2022-08-26T12:12:38.625Z,97651.50
2022-08-26T12:15:17.723Z,97666.34
2022-08-26T12:17:50.477Z,97666.94
2022-08-26T12:20:54.282Z,97651.50
2022-08-26T12:23:41.374Z,97653.78
2022-08-26T12:26:20.883Z,97654.06
2022-08-26T12:29:12.829Z,97645.56
2022-08-26T12:31:47.890Z,97634.41
2022-08-26T12:34:17.630Z,97642.66
2022-08-26T12:36:50.711Z,97632.50
2022-08-26T12:39:28.739Z,97644.69
2022-08-26T12:42:19.316Z,97646.97
2022-08-26T12:45:01.055Z,97638.84
2022-08-26T12:47:42.789Z,97633.44
2022-08-26T12:50:23.511Z,97628.59
2022-08-26T12:53:09.986Z,97631.16
2022-08-26T12:55:50.678Z,97633.50
2022-08-26T12:58:31.689Z,97621.66
2022-08-26T13:01:04.745Z,97618.34
2022-08-26T13:03:34.306Z,97608.63
2022-08-26T13:06:22.971Z,97622.00
2022-08-26T13:09:09.887Z,97624.88
2022-08-26T13:11:39.401Z,97609.00
2022-08-26T13:14:09.014Z,97607.09
2022-08-26T13:16:39.602Z,97603.31
2022-08-26T13:19:18.367Z,97598.69
2022-08-26T13:21:58.144Z,97603.72
2022-08-26T13:24:40.296Z,97610.69
2022-08-26T13:27:10.229Z,97611.13
2022-08-26T13:29:36.787Z,97622.13
2022-08-26T13:32:06.495Z,97621.56
2022-08-26T13:34:34.140Z,97611.06
2022-08-26T13:37:02.040Z,97606.63
2022-08-26T13:39:28.750Z,97600.59
2022-08-26T13:41:55.490Z,97582.56
2022-08-26T13:44:22.156Z,97592.66
2022-08-26T13:46:49.205Z,97601.59
2022-08-26T13:49:16.068Z,97617.81
2022-08-26T13:51:42.819Z,97627.81
2022-08-26T13:54:09.557Z,97623.22
2022-08-26T13:56:37.383Z,97620.56
2022-08-26T13:59:05.803Z,97621.13
2022-08-26T14:01:35.411Z,97625.56
2022-08-26T14:04:03.152Z,97607.22
2022-08-26T14:06:30.316Z,97618.16
2022-08-26T14:08:57.386Z,97621.50
2022-08-26T14:11:24.938Z,97627.59
2022-08-26T14:13:52.366Z,97645.03
2022-08-26T14:16:36.227Z,97654.75
2022-08-26T14:19:24.302Z,97646.63
2022-08-26T14:21:53.428Z,97634.69
2022-08-26T14:24:20.064Z,97644.72
2022-08-26T14:26:48.427Z,97658.56
2022-08-26T14:29:18.471Z,97682.00
2022-08-26T14:31:45.387Z,97698.09
2022-08-26T14:34:14.128Z,97729.41
2022-08-26T14:36:42.937Z,97726.56
2022-08-26T14:39:14.682Z,97723.16
2022-08-26T14:41:53.828Z,97726.88
2022-08-26T14:44:27.796Z,97720.34
2022-08-26T14:46:55.109Z,97720.91
2022-08-26T14:49:27.347Z,97733.91
2022-08-26T14:51:54.801Z,97709.16
2022-08-26T14:54:24.285Z,97697.75
2022-08-26T14:57:00.856Z,97705.31
2022-08-26T14:59:33.104Z,97719.50
2022-08-26T15:02:03.190Z,97737.66
2022-08-26T15:04:31.038Z,97764.25
2022-08-26T15:07:00.324Z,97763.63
2022-08-26T15:09:35.065Z,97756.44
2022-08-26T15:12:02.878Z,97768.69
2022-08-26T15:14:32.812Z,97752.97
2022-08-26T15:17:09.938Z,97754.34
2022-08-26T15:19:36.767Z,97757.03
2022-08-26T15:22:05.637Z,97751.69
2022-08-26T15:24:32.538Z,97759.94
2022-08-26T15:26:59.315Z,97746.06
2022-08-26T15:29:26.191Z,97750.59
2022-08-26T15:31:55.160Z,97749.94
2022-08-26T15:34:24.566Z,97746.06
2022-08-26T15:36:51.323Z,97744.03
2022-08-26T15:39:19.820Z,97741.94
2022-08-26T15:41:47.005Z,97734.44
2022-08-26T15:44:14.366Z,97729.25
2022-08-26T15:46:42.097Z,97719.06
2022-08-26T15:49:16.197Z,97722.84
2022-08-26T15:51:48.058Z,97711.06
2022-08-26T15:54:18.314Z,97707.25
2022-08-26T15:56:47.935Z,97691.19
2022-08-26T15:59:15.390Z,97697.13
2022-08-26T16:01:43.420Z,97684.81
2022-08-26T16:04:11.468Z,97672.13
2022-08-26T16:06:41.416Z,97682.25
2022-08-26T16:09:09.812Z,97689.78
2022-08-26T16:11:37.621Z,97698.28
2022-08-26T16:14:05.805Z,97690.31
2022-08-26T16:16:32.974Z,97688.16
2022-08-26T16:19:06.862Z,97681.88
2022-08-26T16:21:35.323Z,97695.63
2022-08-26T16:24:03.274Z,97708.59
2022-08-26T16:26:35.270Z,97699.78
2022-08-26T16:29:06.308Z,97705.69
2022-08-26T16:31:33.218Z,97696.94
2022-08-26T16:34:00.002Z,97690.81
2022-08-26T16:36:26.711Z,97679.16
2022-08-26T16:38:56.102Z,97689.84
2022-08-26T16:41:26.037Z,97681.59
2022-08-26T16:43:54.455Z,97682.50
2022-08-26T16:46:26.187Z,97680.44
2022-08-26T16:48:55.972Z,97668.47
2022-08-26T16:51:27.192Z,97675.13
2022-08-26T16:53:56.503Z,97671.28
2022-08-26T16:56:33.782Z,97654.44
2022-08-26T16:59:07.800Z,97661.44
2022-08-26T17:01:34.607Z,97671.28
2022-08-26T17:04:01.287Z,97668.94
2022-08-26T17:06:27.987Z,97667.69
2022-08-26T17:08:54.603Z,97662.50
2022-08-26T17:11:21.210Z,97680.88
2022-08-26T17:13:47.929Z,97697.41
2022-08-26T17:16:15.785Z,97723.91
2022-08-26T17:18:42.570Z,97726.94
2022-08-26T17:21:13.101Z,97732.56
2022-08-26T17:23:42.883Z,97743.00
2022-08-26T17:26:12.273Z,97744.00
2022-08-26T17:28:39.894Z,97751.75
2022-08-26T17:31:10.038Z,97776.47
2022-08-26T17:33:38.123Z,97782.59
2022-08-26T17:36:07.269Z,97775.13
2022-08-26T17:38:35.276Z,97770.56
2022-08-26T17:41:01.904Z,97775.03
2022-08-26T17:43:29.425Z,97776.63
2022-08-26T17:46:07.443Z,97768.34
2022-08-26T17:48:37.199Z,97752.88
2022-08-26T17:51:15.018Z,97755.22
2022-08-26T17:53:42.328Z,97760.84
2022-08-26T17:56:13.062Z,97766.69
2022-08-26T17:58:40.383Z,97759.16
2022-08-26T18:01:07.707Z,97758.66
2022-08-26T18:03:35.363Z,97762.13
2022-08-26T18:06:02.562Z,97756.78
2022-08-26T18:08:29.237Z,97744.75
2022-08-26T18:10:55.829Z,97746.34
2022-08-26T18:13:22.511Z,97742.72
2022-08-26T18:15:49.175Z,97740.41
2022-08-26T18:18:16.302Z,97744.16
2022-08-26T18:20:45.029Z,97762.09
2022-08-26T18:23:13.183Z,97757.78
2022-08-26T18:25:43.039Z,97765.75
2022-08-26T18:28:10.432Z,97766.03
2022-08-26T18:30:38.208Z,97762.59
2022-08-26T18:33:04.954Z,97754.09
2022-08-26T18:35:31.585Z,97763.16
2022-08-26T18:38:10.435Z,97767.97
2022-08-26T18:40:41.339Z,97774.88
2022-08-26T18:43:08.857Z,97772.22
2022-08-26T18:45:38.883Z,97774.63
2022-08-26T18:48:09.047Z,97776.75
2022-08-26T18:50:43.806Z,97772.78
2022-08-26T18:53:13.439Z,97782.59
2022-08-26T18:55:41.000Z,97778.88
2022-08-26T18:58:07.644Z,97776.16
2022-08-26T19:00:34.353Z,97782.31
2022-08-26T19:03:01.033Z,97766.84
2022-08-26T19:05:27.891Z,97778.88
2022-08-26T19:07:56.425Z,97785.22
2022-08-26T19:10:23.060Z,97775.97
2022-08-26T19:12:51.897Z,97781.84
2022-08-26T19:15:19.324Z,97786.63
2022-08-26T19:17:45.977Z,97787.41
2022-08-26T19:20:31.087Z,97791.16
2022-08-26T19:23:33.585Z,97780.47
2022-08-26T19:26:19.293Z,97781.00
2022-08-26T19:28:58.449Z,97778.91
2022-08-26T19:31:25.930Z,97780.50
2022-08-26T19:33:53.071Z,97779.13
2022-08-26T19:36:24.812Z,97784.75
2022-08-26T19:38:53.181Z,97763.50
2022-08-26T19:41:37.401Z,97788.78
2022-08-26T19:44:12.951Z,97791.94
2022-08-26T19:46:40.773Z,97789.59
2022-08-26T19:49:07.809Z,97806.38
2022-08-26T19:51:36.428Z,97789.91
2022-08-26T19:54:04.322Z,97808.84
2022-08-26T19:56:31.191Z,97793.13
2022-08-26T19:58:58.303Z,97794.97
2022-08-26T20:01:25.608Z,97779.25
2022-08-26T20:03:53.018Z,97793.63
2022-08-26T20:06:20.307Z,97781.63
2022-08-26T20:08:50.840Z,97788.81
2022-08-26T20:11:20.659Z,97789.06
2022-08-26T20:13:48.354Z,97802.91
2022-08-26T20:16:16.811Z,97798.66
2022-08-26T20:19:04.107Z,97798.97
2022-08-26T20:21:38.024Z,97812.28
2022-08-26T20:24:16.803Z,97815.78
2022-08-26T20:26:45.228Z,97828.84
2022-08-26T20:29:17.534Z,97837.91
2022-08-26T20:31:45.614Z,97844.81
2022-08-26T20:34:14.909Z,97853.34
2022-08-26T20:36:43.260Z,97856.78
2022-08-26T20:39:10.861Z,97865.53
2022-08-26T20:41:38.683Z,97870.88
2022-08-26T20:44:06.501Z,97883.13
2022-08-26T20:46:34.714Z,97893.22
2022-08-26T20:49:01.836Z,97898.56
2022-08-26T20:51:29.061Z,97897.00
2022-08-26T20:53:55.767Z,97897.25
2022-08-26T20:56:25.044Z,97889.00
2022-08-26T20:58:55.641Z,97886.84
2022-08-26T21:01:30.684Z,97900.69
2022-08-26T21:03:57.538Z,97894.31
2022-08-26T21:06:25.108Z,97891.13
2022-08-26T21:08:51.726Z,97893.50
2022-08-26T21:11:20.164Z,97898.81
2022-08-26T21:14:04.393Z,97893.78
2022-08-26T21:16:36.750Z,97890.81
2022-08-26T21:19:06.291Z,97892.69
2022-08-26T21:21:33.562Z,97885.47
2022-08-26T21:24:00.536Z,97886.53
2022-08-26T21:26:27.574Z,97873.19
2022-08-26T21:28:54.778Z,97869.47
2022-08-26T21:31:25.239Z,97861.81
2022-08-26T21:33:53.127Z,97875.41
2022-08-26T21:36:20.220Z,97864.47
2022-08-26T21:38:47.136Z,97863.44
2022-08-26T21:41:19.362Z,97864.50
2022-08-26T21:43:47.872Z,97867.16
2022-08-26T21:46:19.839Z,97879.69
2022-08-26T21:48:53.598Z,97884.75
2022-08-26T21:51:23.287Z,97878.34
2022-08-26T21:53:52.729Z,97878.38
2022-08-26T21:56:21.332Z,97883.94
2022-08-26T21:58:48.016Z,97882.63
2022-08-26T22:01:20.961Z,97882.34
2022-08-26T22:03:49.840Z,97879.44
2022-08-26T22:06:18.909Z,97876.75
2022-08-26T22:08:45.569Z,97866.84
2022-08-26T22:11:13.219Z,97875.09
2022-08-26T22:13:42.428Z,97873.53
2022-08-26T22:16:10.483Z,97869.75
2022-08-26T22:18:38.418Z,97872.41
2022-08-26T22:21:13.888Z,97864.72
2022-08-26T22:23:41.734Z,97863.06
2022-08-26T22:26:11.631Z,97847.41
2022-08-26T22:28:39.279Z,97844.72
2022-08-26T22:31:12.332Z,97847.41
2022-08-26T22:33:42.312Z,97848.19
2022-08-26T22:36:24.317Z,97839.91
2022-08-26T22:38:51.136Z,97844.69
2022-08-26T22:41:18.511Z,97833.53
2022-08-26T22:43:46.875Z,97832.16
2022-08-26T22:46:24.595Z,97830.56
2022-08-26T22:48:53.702Z,97825.50
2022-08-26T22:51:23.025Z,97820.19
2022-08-26T22:53:49.883Z,97811.13
2022-08-26T22:56:18.308Z,97803.72
2022-08-26T22:58:45.481Z,97806.38
2022-08-26T23:01:12.244Z,97794.66
2022-08-26T23:03:39.321Z,97796.25
2022-08-26T23:06:09.350Z,97793.84
2022-08-26T23:08:37.318Z,97782.94
2022-08-26T23:11:09.128Z,97792.22
2022-08-26T23:13:36.332Z,97794.09
2022-08-26T23:16:09.093Z,97795.16
2022-08-26T23:18:36.395Z,97795.97
2022-08-26T23:21:03.201Z,97780.00
2022-08-26T23:23:30.019Z,97777.06
2022-08-26T23:25:57.401Z,97780.03
2022-08-26T23:28:24.249Z,97780.78
2022-08-26T23:30:50.826Z,97787.19
2022-08-26T23:33:17.527Z,97779.47
2022-08-26T23:35:44.238Z,97777.06
2022-08-26T23:38:13.966Z,97773.84
2022-08-26T23:40:41.258Z,97779.19
2022-08-26T23:43:11.420Z,97785.56
2022-08-26T23:45:38.654Z,97781.56
2022-08-26T23:48:06.533Z,97795.09
2022-08-26T23:50:52.593Z,97789.28
2022-08-26T23:53:22.613Z,97798.31
2022-08-26T23:55:52.609Z,97796.22
2022-08-26T23:58:21.255Z,97801.81
